sensor_id;sensor_type;location;lat;lon;timestamp;temperature;humidity
22908;DHT22;11620;50.050;8.690;2024-01-30T00:01:28;2.00;99.90
22908;DHT22;11620;50.050;8.690;2024-01-30T00:04:14;2.00;99.90
22908;DHT22;11620;50.050;8.690;2024-01-30T00:07:02;1.90;99.90
22908;DHT22;11620;50.050;8.690;2024-01-30T00:09:49;1.90;99.90
22908;DHT22;11620;50.050;8.690;2024-01-30T00:12:35;1.90;99.90
22908;DHT22;11620;50.050;8.690;2024-01-30T00:15:22;1.90;99.90
22908;DHT22;11620;50.050;8.690;2024-01-30T00:18:08;1.90;99.90
22908;DHT22;11620;50.050;8.690;2024-01-30T00:20:54;1.90;99.90
22908;DHT22;11620;50.050;8.690;2024-01-30T00:23:41;1.90;99.90
22908;DHT22;11620;50.050;8.690;2024-01-30T00:26:27;1.90;99.90
22908;DHT22;11620;50.050;8.690;2024-01-30T00:29:14;1.80;99.90
22908;DHT22;11620;50.050;8.690;2024-01-30T00:32:05;1.80;99.90
22908;DHT22;11620;50.050;8.690;2024-01-30T00:34:52;1.80;99.90
22908;DHT22;11620;50.050;8.690;2024-01-30T00:37:38;1.80;99.90
22908;DHT22;11620;50.050;8.690;2024-01-30T00:40:24;1.70;99.90
22908;DHT22;11620;50.050;8.690;2024-01-30T00:43:10;1.70;99.90
22908;DHT22;11620;50.050;8.690;2024-01-30T00:45:57;1.70;99.90
22908;DHT22;11620;50.050;8.690;2024-01-30T00:48:44;1.60;99.90
22908;DHT22;11620;50.050;8.690;2024-01-30T00:51:30;1.60;99.90
22908;DHT22;11620;50.050;8.690;2024-01-30T00:54:16;1.60;99.90
22908;DHT22;11620;50.050;8.690;2024-01-30T00:57:03;1.60;99.90
22908;DHT22;11620;50.050;8.690;2024-01-30T00:59:50;1.60;99.90
22908;DHT22;11620;50.050;8.690;2024-01-30T01:02:36;1.60;99.90
22908;DHT22;11620;50.050;8.690;2024-01-30T01:05:23;1.50;99.90
22908;DHT22;11620;50.050;8.690;2024-01-30T01:08:09;1.50;99.90
22908;DHT22;11620;50.050;8.690;2024-01-30T01:10:55;1.50;99.90
22908;DHT22;11620;50.050;8.690;2024-01-30T01:13:41;1.40;99.90
22908;DHT22;11620;50.050;8.690;2024-01-30T01:16:28;1.40;99.90
22908;DHT22;11620;50.050;8.690;2024-01-30T01:19:14;1.40;99.90
22908;DHT22;11620;50.050;8.690;2024-01-30T01:22:00;1.40;99.90
22908;DHT22;11620;50.050;8.690;2024-01-30T01:24:47;1.30;99.90
22908;DHT22;11620;50.050;8.690;2024-01-30T01:27:33;1.30;99.90
22908;DHT22;11620;50.050;8.690;2024-01-30T01:30:20;1.30;99.90
22908;DHT22;11620;50.050;8.690;2024-01-30T01:33:10;1.20;99.90
22908;DHT22;11620;50.050;8.690;2024-01-30T01:35:56;1.20;99.90
22908;DHT22;11620;50.050;8.690;2024-01-30T01:38:42;1.10;99.90
22908;DHT22;11620;50.050;8.690;2024-01-30T01:41:34;1.10;99.90
22908;DHT22;11620;50.050;8.690;2024-01-30T01:44:21;1.10;99.90
22908;DHT22;11620;50.050;8.690;2024-01-30T01:47:08;1.10;99.90
22908;DHT22;11620;50.050;8.690;2024-01-30T01:49:54;1.10;99.90
22908;DHT22;11620;50.050;8.690;2024-01-30T01:52:41;1.00;99.90
22908;DHT22;11620;50.050;8.690;2024-01-30T01:55:28;1.00;99.90
22908;DHT22;11620;50.050;8.690;2024-01-30T01:58:15;1.00;99.90
22908;DHT22;11620;50.050;8.690;2024-01-30T02:01:04;0.90;99.90
22908;DHT22;11620;50.050;8.690;2024-01-30T02:03:51;0.90;99.90
22908;DHT22;11620;50.050;8.690;2024-01-30T02:06:37;0.90;99.90
22908;DHT22;11620;50.050;8.690;2024-01-30T02:09:24;0.80;99.90
22908;DHT22;11620;50.050;8.690;2024-01-30T02:12:10;0.80;99.90
22908;DHT22;11620;50.050;8.690;2024-01-30T02:14:57;0.80;99.90
22908;DHT22;11620;50.050;8.690;2024-01-30T02:17:43;0.80;99.90
22908;DHT22;11620;50.050;8.690;2024-01-30T02:20:30;0.80;99.90
22908;DHT22;11620;50.050;8.690;2024-01-30T02:23:19;0.80;99.90
22908;DHT22;11620;50.050;8.690;2024-01-30T02:26:06;0.70;99.90
22908;DHT22;11620;50.050;8.690;2024-01-30T02:28:52;0.70;99.90
22908;DHT22;11620;50.050;8.690;2024-01-30T02:31:41;0.70;99.90
22908;DHT22;11620;50.050;8.690;2024-01-30T02:34:27;0.70;99.90
22908;DHT22;11620;50.050;8.690;2024-01-30T02:37:14;0.70;99.90
22908;DHT22;11620;50.050;8.690;2024-01-30T02:40:00;0.70;99.90
22908;DHT22;11620;50.050;8.690;2024-01-30T02:42:46;0.70;99.90
22908;DHT22;11620;50.050;8.690;2024-01-30T02:45:33;0.70;99.90
22908;DHT22;11620;50.050;8.690;2024-01-30T02:48:19;0.70;99.90
22908;DHT22;11620;50.050;8.690;2024-01-30T02:51:05;0.60;99.90
22908;DHT22;11620;50.050;8.690;2024-01-30T02:53:52;0.50;99.90
22908;DHT22;11620;50.050;8.690;2024-01-30T02:56:38;0.50;99.90
22908;DHT22;11620;50.050;8.690;2024-01-30T02:59:25;0.50;99.90
22908;DHT22;11620;50.050;8.690;2024-01-30T03:02:11;0.50;99.90
22908;DHT22;11620;50.050;8.690;2024-01-30T03:04:59;0.50;99.90
22908;DHT22;11620;50.050;8.690;2024-01-30T03:07:45;0.50;99.90
22908;DHT22;11620;50.050;8.690;2024-01-30T03:10:31;0.50;99.90
22908;DHT22;11620;50.050;8.690;2024-01-30T03:13:18;0.50;99.90
22908;DHT22;11620;50.050;8.690;2024-01-30T03:16:04;0.50;99.90
22908;DHT22;11620;50.050;8.690;2024-01-30T03:18:51;0.50;99.90
22908;DHT22;11620;50.050;8.690;2024-01-30T03:21:37;0.40;99.90
22908;DHT22;11620;50.050;8.690;2024-01-30T03:24:23;0.40;99.90
22908;DHT22;11620;50.050;8.690;2024-01-30T03:27:10;0.40;99.90
22908;DHT22;11620;50.050;8.690;2024-01-30T03:29:57;0.40;99.90
22908;DHT22;11620;50.050;8.690;2024-01-30T03:32:44;0.40;99.90
22908;DHT22;11620;50.050;8.690;2024-01-30T03:35:30;0.30;99.90
22908;DHT22;11620;50.050;8.690;2024-01-30T03:38:16;0.30;99.90
22908;DHT22;11620;50.050;8.690;2024-01-30T03:41:03;0.30;99.90
22908;DHT22;11620;50.050;8.690;2024-01-30T03:43:49;0.30;99.90
22908;DHT22;11620;50.050;8.690;2024-01-30T03:46:35;0.30;99.90
22908;DHT22;11620;50.050;8.690;2024-01-30T03:49:21;0.30;99.90
22908;DHT22;11620;50.050;8.690;2024-01-30T03:52:08;0.30;99.90
22908;DHT22;11620;50.050;8.690;2024-01-30T03:54:54;0.30;99.90
22908;DHT22;11620;50.050;8.690;2024-01-30T03:57:40;0.30;99.90
22908;DHT22;11620;50.050;8.690;2024-01-30T04:00:27;0.20;99.90
22908;DHT22;11620;50.050;8.690;2024-01-30T04:03:14;0.30;99.90
22908;DHT22;11620;50.050;8.690;2024-01-30T04:06:01;0.30;99.90
22908;DHT22;11620;50.050;8.690;2024-01-30T04:08:47;0.30;99.90
22908;DHT22;11620;50.050;8.690;2024-01-30T04:11:34;0.20;99.90
22908;DHT22;11620;50.050;8.690;2024-01-30T04:14:20;0.20;99.90
22908;DHT22;11620;50.050;8.690;2024-01-30T04:17:06;0.20;99.90
22908;DHT22;11620;50.050;8.690;2024-01-30T04:19:53;0.20;99.90
22908;DHT22;11620;50.050;8.690;2024-01-30T04:22:39;0.20;99.90
22908;DHT22;11620;50.050;8.690;2024-01-30T04:25:25;0.20;99.90
22908;DHT22;11620;50.050;8.690;2024-01-30T04:28:12;0.20;99.90
22908;DHT22;11620;50.050;8.690;2024-01-30T04:30:58;0.20;99.90
22908;DHT22;11620;50.050;8.690;2024-01-30T04:33:44;0.20;99.90
22908;DHT22;11620;50.050;8.690;2024-01-30T04:36:31;0.20;99.90
22908;DHT22;11620;50.050;8.690;2024-01-30T04:39:17;0.20;99.90
22908;DHT22;11620;50.050;8.690;2024-01-30T04:42:04;0.20;99.90
22908;DHT22;11620;50.050;8.690;2024-01-30T04:44:51;0.20;99.90
22908;DHT22;11620;50.050;8.690;2024-01-30T04:47:37;0.10;99.90
22908;DHT22;11620;50.050;8.690;2024-01-30T04:50:23;0.20;99.90
22908;DHT22;11620;50.050;8.690;2024-01-30T04:53:10;0.10;99.90
22908;DHT22;11620;50.050;8.690;2024-01-30T04:55:56;0.10;99.90
22908;DHT22;11620;50.050;8.690;2024-01-30T04:58:43;0.00;99.90
22908;DHT22;11620;50.050;8.690;2024-01-30T05:01:29;0.00;99.90
22908;DHT22;11620;50.050;8.690;2024-01-30T05:04:15;0.00;99.90
22908;DHT22;11620;50.050;8.690;2024-01-30T05:07:02;0.00;99.90
22908;DHT22;11620;50.050;8.690;2024-01-30T05:09:48;-0.10;99.90
22908;DHT22;11620;50.050;8.690;2024-01-30T05:12:34;-0.10;99.90
22908;DHT22;11620;50.050;8.690;2024-01-30T05:15:21;-0.10;99.90
22908;DHT22;11620;50.050;8.690;2024-01-30T05:18:07;0.00;99.90
22908;DHT22;11620;50.050;8.690;2024-01-30T05:20:53;-0.10;99.90
22908;DHT22;11620;50.050;8.690;2024-01-30T05:23:40;0.00;99.90
22908;DHT22;11620;50.050;8.690;2024-01-30T05:26:27;0.00;99.90
22908;DHT22;11620;50.050;8.690;2024-01-30T05:29:14;0.00;99.90
22908;DHT22;11620;50.050;8.690;2024-01-30T05:32:00;0.00;99.90
22908;DHT22;11620;50.050;8.690;2024-01-30T05:34:46;0.00;99.90
22908;DHT22;11620;50.050;8.690;2024-01-30T05:37:33;0.00;99.90
22908;DHT22;11620;50.050;8.690;2024-01-30T05:40:19;-0.10;99.90
22908;DHT22;11620;50.050;8.690;2024-01-30T05:43:05;-0.10;99.90
22908;DHT22;11620;50.050;8.690;2024-01-30T05:45:52;-0.10;99.90
22908;DHT22;11620;50.050;8.690;2024-01-30T05:48:38;-0.10;99.90
22908;DHT22;11620;50.050;8.690;2024-01-30T05:51:25;-0.10;99.90
22908;DHT22;11620;50.050;8.690;2024-01-30T05:54:11;-0.10;99.90
22908;DHT22;11620;50.050;8.690;2024-01-30T05:56:57;-0.10;99.90
22908;DHT22;11620;50.050;8.690;2024-01-30T05:59:44;-0.10;99.90
22908;DHT22;11620;50.050;8.690;2024-01-30T06:02:31;-0.10;99.90
22908;DHT22;11620;50.050;8.690;2024-01-30T06:05:17;-0.10;99.90
22908;DHT22;11620;50.050;8.690;2024-01-30T06:08:04;-0.10;99.90
22908;DHT22;11620;50.050;8.690;2024-01-30T06:10:50;-0.10;99.90
22908;DHT22;11620;50.050;8.690;2024-01-30T06:13:37;-0.10;99.90
22908;DHT22;11620;50.050;8.690;2024-01-30T06:16:23;-0.10;99.90
22908;DHT22;11620;50.050;8.690;2024-01-30T06:19:09;-0.20;99.90
22908;DHT22;11620;50.050;8.690;2024-01-30T06:21:58;-0.20;99.90
22908;DHT22;11620;50.050;8.690;2024-01-30T06:24:45;-0.20;99.90
22908;DHT22;11620;50.050;8.690;2024-01-30T06:27:33;-0.20;99.90
22908;DHT22;11620;50.050;8.690;2024-01-30T06:30:20;-0.20;99.90
22908;DHT22;11620;50.050;8.690;2024-01-30T06:33:06;-0.20;99.90
22908;DHT22;11620;50.050;8.690;2024-01-30T06:35:52;-0.20;99.90
22908;DHT22;11620;50.050;8.690;2024-01-30T06:38:39;-0.20;99.90
22908;DHT22;11620;50.050;8.690;2024-01-30T06:41:25;-0.20;99.90
22908;DHT22;11620;50.050;8.690;2024-01-30T06:44:12;-0.20;99.90
22908;DHT22;11620;50.050;8.690;2024-01-30T06:46:58;-0.20;99.90
22908;DHT22;11620;50.050;8.690;2024-01-30T06:49:45;-0.20;99.90
22908;DHT22;11620;50.050;8.690;2024-01-30T06:52:31;-0.20;99.90
22908;DHT22;11620;50.050;8.690;2024-01-30T06:55:18;-0.20;99.90
22908;DHT22;11620;50.050;8.690;2024-01-30T06:58:04;-0.20;99.90
22908;DHT22;11620;50.050;8.690;2024-01-30T07:00:51;-0.20;99.90
22908;DHT22;11620;50.050;8.690;2024-01-30T07:03:37;-0.20;99.90
22908;DHT22;11620;50.050;8.690;2024-01-30T07:06:24;-0.20;99.90
22908;DHT22;11620;50.050;8.690;2024-01-30T07:09:12;-0.20;99.90
22908;DHT22;11620;50.050;8.690;2024-01-30T07:11:59;-0.20;99.90
22908;DHT22;11620;50.050;8.690;2024-01-30T07:14:46;-0.20;99.90
22908;DHT22;11620;50.050;8.690;2024-01-30T07:17:32;-0.20;99.90
22908;DHT22;11620;50.050;8.690;2024-01-30T07:20:18;-0.20;99.90
22908;DHT22;11620;50.050;8.690;2024-01-30T07:23:06;-0.20;99.90
22908;DHT22;11620;50.050;8.690;2024-01-30T07:25:52;-0.20;99.90
22908;DHT22;11620;50.050;8.690;2024-01-30T07:28:39;-0.10;99.90
22908;DHT22;11620;50.050;8.690;2024-01-30T07:31:25;-0.10;99.90
22908;DHT22;11620;50.050;8.690;2024-01-30T07:34:11;-0.10;99.90
22908;DHT22;11620;50.050;8.690;2024-01-30T07:36:58;-0.10;99.90
22908;DHT22;11620;50.050;8.690;2024-01-30T07:39:44;0.00;99.90
22908;DHT22;11620;50.050;8.690;2024-01-30T07:42:30;0.00;99.90
22908;DHT22;11620;50.050;8.690;2024-01-30T07:45:17;0.00;99.90
22908;DHT22;11620;50.050;8.690;2024-01-30T07:48:08;0.10;99.90
22908;DHT22;11620;50.050;8.690;2024-01-30T07:50:54;0.10;99.90
22908;DHT22;11620;50.050;8.690;2024-01-30T07:53:40;0.10;99.90
22908;DHT22;11620;50.050;8.690;2024-01-30T07:56:28;0.10;99.90
22908;DHT22;11620;50.050;8.690;2024-01-30T07:59:14;0.20;99.90
22908;DHT22;11620;50.050;8.690;2024-01-30T08:02:03;0.20;99.90
22908;DHT22;11620;50.050;8.690;2024-01-30T08:04:50;0.30;99.90
22908;DHT22;11620;50.050;8.690;2024-01-30T08:07:36;0.30;99.90
22908;DHT22;11620;50.050;8.690;2024-01-30T08:10:22;0.40;99.90
22908;DHT22;11620;50.050;8.690;2024-01-30T08:13:09;0.40;99.90
22908;DHT22;11620;50.050;8.690;2024-01-30T08:15:56;0.50;99.90
22908;DHT22;11620;50.050;8.690;2024-01-30T08:18:42;0.50;99.90
22908;DHT22;11620;50.050;8.690;2024-01-30T08:21:28;0.60;99.90
22908;DHT22;11620;50.050;8.690;2024-01-30T08:24:15;0.70;99.90
22908;DHT22;11620;50.050;8.690;2024-01-30T08:27:01;0.70;99.90
22908;DHT22;11620;50.050;8.690;2024-01-30T08:29:48;0.80;99.90
22908;DHT22;11620;50.050;8.690;2024-01-30T08:32:36;0.90;99.90
22908;DHT22;11620;50.050;8.690;2024-01-30T08:35:22;1.00;99.90
22908;DHT22;11620;50.050;8.690;2024-01-30T08:38:08;1.00;99.90
22908;DHT22;11620;50.050;8.690;2024-01-30T08:40:56;1.10;99.90
22908;DHT22;11620;50.050;8.690;2024-01-30T08:43:42;1.30;99.90
22908;DHT22;11620;50.050;8.690;2024-01-30T08:46:30;1.40;99.90
22908;DHT22;11620;50.050;8.690;2024-01-30T08:49:17;1.50;99.90
22908;DHT22;11620;50.050;8.690;2024-01-30T08:52:03;1.60;99.90
22908;DHT22;11620;50.050;8.690;2024-01-30T08:54:50;1.60;99.90
22908;DHT22;11620;50.050;8.690;2024-01-30T08:57:36;1.70;99.90
22908;DHT22;11620;50.050;8.690;2024-01-30T09:00:22;1.70;99.90
22908;DHT22;11620;50.050;8.690;2024-01-30T09:03:09;1.80;99.90
22908;DHT22;11620;50.050;8.690;2024-01-30T09:05:55;1.90;99.90
22908;DHT22;11620;50.050;8.690;2024-01-30T09:08:41;2.00;99.90
22908;DHT22;11620;50.050;8.690;2024-01-30T09:11:28;2.00;99.90
22908;DHT22;11620;50.050;8.690;2024-01-30T09:14:14;1.90;99.90
22908;DHT22;11620;50.050;8.690;2024-01-30T09:17:00;1.80;99.90
22908;DHT22;11620;50.050;8.690;2024-01-30T09:19:47;1.90;99.90
22908;DHT22;11620;50.050;8.690;2024-01-30T09:22:33;1.80;99.90
22908;DHT22;11620;50.050;8.690;2024-01-30T09:25:20;1.80;99.90
22908;DHT22;11620;50.050;8.690;2024-01-30T09:28:07;1.80;99.90
22908;DHT22;11620;50.050;8.690;2024-01-30T09:30:53;1.60;99.90
22908;DHT22;11620;50.050;8.690;2024-01-30T09:33:40;1.80;99.90
22908;DHT22;11620;50.050;8.690;2024-01-30T09:36:27;1.90;99.90
22908;DHT22;11620;50.050;8.690;2024-01-30T09:39:13;1.90;99.90
22908;DHT22;11620;50.050;8.690;2024-01-30T09:45:18;1.90;99.90
22908;DHT22;11620;50.050;8.690;2024-01-30T09:48:05;1.90;99.90
22908;DHT22;11620;50.050;8.690;2024-01-30T09:50:52;2.00;99.90
22908;DHT22;11620;50.050;8.690;2024-01-30T09:53:40;2.10;99.90
22908;DHT22;11620;50.050;8.690;2024-01-30T09:56:27;2.20;99.90
22908;DHT22;11620;50.050;8.690;2024-01-30T09:59:14;2.40;99.90
22908;DHT22;11620;50.050;8.690;2024-01-30T10:02:01;2.50;99.90
22908;DHT22;11620;50.050;8.690;2024-01-30T10:04:50;2.50;99.90
22908;DHT22;11620;50.050;8.690;2024-01-30T10:07:37;2.70;99.90
22908;DHT22;11620;50.050;8.690;2024-01-30T10:10:23;2.70;99.90
22908;DHT22;11620;50.050;8.690;2024-01-30T10:13:10;2.90;99.90
22908;DHT22;11620;50.050;8.690;2024-01-30T10:15:56;3.10;99.90
22908;DHT22;11620;50.050;8.690;2024-01-30T10:18:44;3.20;99.90
22908;DHT22;11620;50.050;8.690;2024-01-30T10:21:30;3.40;99.90
22908;DHT22;11620;50.050;8.690;2024-01-30T10:24:16;3.40;99.90
22908;DHT22;11620;50.050;8.690;2024-01-30T10:27:05;3.40;99.90
22908;DHT22;11620;50.050;8.690;2024-01-30T10:29:51;3.50;99.90
22908;DHT22;11620;50.050;8.690;2024-01-30T10:32:38;3.50;99.90
22908;DHT22;11620;50.050;8.690;2024-01-30T10:35:25;3.50;99.90
22908;DHT22;11620;50.050;8.690;2024-01-30T10:38:13;3.80;99.90
22908;DHT22;11620;50.050;8.690;2024-01-30T10:41:02;3.90;99.90
22908;DHT22;11620;50.050;8.690;2024-01-30T10:44:02;3.90;99.90
22908;DHT22;11620;50.050;8.690;2024-01-30T10:47:00;3.90;99.90
22908;DHT22;11620;50.050;8.690;2024-01-30T10:49:49;3.80;99.90
22908;DHT22;11620;50.050;8.690;2024-01-30T10:52:39;3.60;99.90
22908;DHT22;11620;50.050;8.690;2024-01-30T10:55:27;3.70;99.90
22908;DHT22;11620;50.050;8.690;2024-01-30T10:58:14;3.70;99.90
22908;DHT22;11620;50.050;8.690;2024-01-30T11:01:01;3.90;99.90
22908;DHT22;11620;50.050;8.690;2024-01-30T11:03:52;4.10;99.90
22908;DHT22;11620;50.050;8.690;2024-01-30T11:06:42;4.20;99.90
22908;DHT22;11620;50.050;8.690;2024-01-30T11:09:29;4.30;99.90
22908;DHT22;11620;50.050;8.690;2024-01-30T11:12:15;4.40;99.90
22908;DHT22;11620;50.050;8.690;2024-01-30T11:15:09;4.40;99.90
22908;DHT22;11620;50.050;8.690;2024-01-30T11:17:56;4.60;99.90
22908;DHT22;11620;50.050;8.690;2024-01-30T11:20:46;4.90;99.90
22908;DHT22;11620;50.050;8.690;2024-01-30T11:23:33;5.40;99.90
22908;DHT22;11620;50.050;8.690;2024-01-30T11:26:27;6.00;99.90
22908;DHT22;11620;50.050;8.690;2024-01-30T11:29:13;6.00;99.90
22908;DHT22;11620;50.050;8.690;2024-01-30T11:32:01;6.30;99.90
22908;DHT22;11620;50.050;8.690;2024-01-30T11:34:47;6.40;99.90
22908;DHT22;11620;50.050;8.690;2024-01-30T11:37:36;6.50;99.90
22908;DHT22;11620;50.050;8.690;2024-01-30T11:40:26;6.80;99.90
22908;DHT22;11620;50.050;8.690;2024-01-30T11:43:13;7.10;99.90
22908;DHT22;11620;50.050;8.690;2024-01-30T11:45:59;7.20;99.90
22908;DHT22;11620;50.050;8.690;2024-01-30T11:48:46;7.20;99.90
22908;DHT22;11620;50.050;8.690;2024-01-30T11:51:32;6.90;99.90
22908;DHT22;11620;50.050;8.690;2024-01-30T11:54:19;6.80;99.90
22908;DHT22;11620;50.050;8.690;2024-01-30T11:57:05;6.70;99.90
22908;DHT22;11620;50.050;8.690;2024-01-30T11:59:51;6.20;99.90
22908;DHT22;11620;50.050;8.690;2024-01-30T12:02:38;6.30;99.90
22908;DHT22;11620;50.050;8.690;2024-01-30T12:05:27;6.20;99.90
22908;DHT22;11620;50.050;8.690;2024-01-30T12:08:17;6.20;99.90
22908;DHT22;11620;50.050;8.690;2024-01-30T12:11:06;6.30;99.90
22908;DHT22;11620;50.050;8.690;2024-01-30T12:13:53;6.20;99.90
22908;DHT22;11620;50.050;8.690;2024-01-30T12:16:40;6.10;99.90
22908;DHT22;11620;50.050;8.690;2024-01-30T12:19:27;6.30;99.90
22908;DHT22;11620;50.050;8.690;2024-01-30T12:22:13;6.30;99.90
22908;DHT22;11620;50.050;8.690;2024-01-30T12:25:00;6.40;99.90
22908;DHT22;11620;50.050;8.690;2024-01-30T12:27:48;6.50;99.90
22908;DHT22;11620;50.050;8.690;2024-01-30T12:30:37;6.60;99.90
22908;DHT22;11620;50.050;8.690;2024-01-30T12:33:26;6.80;99.90
22908;DHT22;11620;50.050;8.690;2024-01-30T12:36:12;6.90;99.90
22908;DHT22;11620;50.050;8.690;2024-01-30T12:38:59;6.90;99.90
22908;DHT22;11620;50.050;8.690;2024-01-30T12:41:45;7.00;99.90
22908;DHT22;11620;50.050;8.690;2024-01-30T12:44:32;7.10;99.90
22908;DHT22;11620;50.050;8.690;2024-01-30T12:47:18;7.20;99.90
22908;DHT22;11620;50.050;8.690;2024-01-30T12:50:07;7.30;99.90
22908;DHT22;11620;50.050;8.690;2024-01-30T12:52:53;7.30;99.90
22908;DHT22;11620;50.050;8.690;2024-01-30T12:55:40;7.00;99.90
22908;DHT22;11620;50.050;8.690;2024-01-30T12:58:26;7.10;99.90
22908;DHT22;11620;50.050;8.690;2024-01-30T13:01:12;7.00;99.90
22908;DHT22;11620;50.050;8.690;2024-01-30T13:03:59;6.90;99.90
22908;DHT22;11620;50.050;8.690;2024-01-30T13:06:45;6.80;99.90
22908;DHT22;11620;50.050;8.690;2024-01-30T13:09:31;6.90;99.90
22908;DHT22;11620;50.050;8.690;2024-01-30T13:12:18;6.90;99.90
22908;DHT22;11620;50.050;8.690;2024-01-30T13:15:05;6.90;99.90
22908;DHT22;11620;50.050;8.690;2024-01-30T13:17:51;6.80;99.90
22908;DHT22;11620;50.050;8.690;2024-01-30T13:20:40;6.80;99.90
22908;DHT22;11620;50.050;8.690;2024-01-30T13:23:26;7.00;99.90
22908;DHT22;11620;50.050;8.690;2024-01-30T13:26:13;7.10;99.90
22908;DHT22;11620;50.050;8.690;2024-01-30T13:28:59;7.10;99.90
22908;DHT22;11620;50.050;8.690;2024-01-30T13:31:45;7.10;99.90
22908;DHT22;11620;50.050;8.690;2024-01-30T13:34:32;7.10;99.90
22908;DHT22;11620;50.050;8.690;2024-01-30T13:37:19;6.90;99.90
22908;DHT22;11620;50.050;8.690;2024-01-30T13:40:06;7.00;99.90
22908;DHT22;11620;50.050;8.690;2024-01-30T13:42:53;6.90;99.90
22908;DHT22;11620;50.050;8.690;2024-01-30T13:45:39;6.90;99.90
22908;DHT22;11620;50.050;8.690;2024-01-30T13:48:25;7.00;99.90
22908;DHT22;11620;50.050;8.690;2024-01-30T13:51:12;6.90;99.90
22908;DHT22;11620;50.050;8.690;2024-01-30T13:53:59;7.00;99.90
22908;DHT22;11620;50.050;8.690;2024-01-30T13:56:45;7.20;99.90
22908;DHT22;11620;50.050;8.690;2024-01-30T13:59:31;7.30;99.90
22908;DHT22;11620;50.050;8.690;2024-01-30T14:02:18;7.20;99.90
22908;DHT22;11620;50.050;8.690;2024-01-30T14:05:04;7.20;99.90
22908;DHT22;11620;50.050;8.690;2024-01-30T14:07:54;7.20;99.90
22908;DHT22;11620;50.050;8.690;2024-01-30T14:10:40;7.10;99.90
22908;DHT22;11620;50.050;8.690;2024-01-30T14:13:27;7.10;99.90
22908;DHT22;11620;50.050;8.690;2024-01-30T14:16:13;7.10;99.90
22908;DHT22;11620;50.050;8.690;2024-01-30T14:19:03;7.20;99.90
22908;DHT22;11620;50.050;8.690;2024-01-30T14:21:49;7.20;99.90
22908;DHT22;11620;50.050;8.690;2024-01-30T14:24:35;7.10;99.90
22908;DHT22;11620;50.050;8.690;2024-01-30T14:27:23;7.00;99.90
22908;DHT22;11620;50.050;8.690;2024-01-30T14:30:10;7.10;99.90
22908;DHT22;11620;50.050;8.690;2024-01-30T14:32:57;7.10;99.90
22908;DHT22;11620;50.050;8.690;2024-01-30T14:35:43;7.10;99.90
22908;DHT22;11620;50.050;8.690;2024-01-30T14:38:30;7.20;99.90
22908;DHT22;11620;50.050;8.690;2024-01-30T14:41:16;7.20;99.90
22908;DHT22;11620;50.050;8.690;2024-01-30T14:44:02;7.20;99.90
22908;DHT22;11620;50.050;8.690;2024-01-30T14:46:49;7.20;99.90
22908;DHT22;11620;50.050;8.690;2024-01-30T14:49:35;7.10;99.90
22908;DHT22;11620;50.050;8.690;2024-01-30T14:52:22;7.00;99.90
22908;DHT22;11620;50.050;8.690;2024-01-30T14:55:08;7.10;99.90
22908;DHT22;11620;50.050;8.690;2024-01-30T14:57:55;7.10;99.90
22908;DHT22;11620;50.050;8.690;2024-01-30T15:00:42;7.10;99.90
22908;DHT22;11620;50.050;8.690;2024-01-30T15:03:29;7.00;99.90
22908;DHT22;11620;50.050;8.690;2024-01-30T15:06:15;6.90;99.90
22908;DHT22;11620;50.050;8.690;2024-01-30T15:09:01;7.00;99.90
22908;DHT22;11620;50.050;8.690;2024-01-30T15:11:48;7.00;99.90
22908;DHT22;11620;50.050;8.690;2024-01-30T15:14:35;7.00;99.90
22908;DHT22;11620;50.050;8.690;2024-01-30T15:17:21;7.10;99.90
22908;DHT22;11620;50.050;8.690;2024-01-30T15:20:08;7.00;99.90
22908;DHT22;11620;50.050;8.690;2024-01-30T15:22:54;7.00;99.90
22908;DHT22;11620;50.050;8.690;2024-01-30T15:25:40;7.00;99.90
22908;DHT22;11620;50.050;8.690;2024-01-30T15:28:39;6.90;99.90
22908;DHT22;11620;50.050;8.690;2024-01-30T15:31:25;6.80;99.90
22908;DHT22;11620;50.050;8.690;2024-01-30T15:34:12;6.90;99.90
22908;DHT22;11620;50.050;8.690;2024-01-30T15:36:58;7.00;99.90
22908;DHT22;11620;50.050;8.690;2024-01-30T15:39:44;7.10;99.90
22908;DHT22;11620;50.050;8.690;2024-01-30T15:42:31;7.10;99.90
22908;DHT22;11620;50.050;8.690;2024-01-30T15:45:17;7.10;99.90
22908;DHT22;11620;50.050;8.690;2024-01-30T15:48:04;7.10;99.90
22908;DHT22;11620;50.050;8.690;2024-01-30T15:50:51;7.10;99.90
22908;DHT22;11620;50.050;8.690;2024-01-30T15:53:37;7.10;99.90
22908;DHT22;11620;50.050;8.690;2024-01-30T15:56:24;7.00;99.90
22908;DHT22;11620;50.050;8.690;2024-01-30T15:59:10;7.00;99.90
22908;DHT22;11620;50.050;8.690;2024-01-30T16:01:56;7.00;99.90
22908;DHT22;11620;50.050;8.690;2024-01-30T16:04:22;7.00;99.90
22908;DHT22;11620;50.050;8.690;2024-01-30T16:06:50;7.00;99.90
22908;DHT22;11620;50.050;8.690;2024-01-30T16:09:16;7.00;99.90
22908;DHT22;11620;50.050;8.690;2024-01-30T16:11:42;6.90;99.90
22908;DHT22;11620;50.050;8.690;2024-01-30T16:14:08;6.90;99.90
22908;DHT22;11620;50.050;8.690;2024-01-30T16:16:35;6.90;99.90
22908;DHT22;11620;50.050;8.690;2024-01-30T16:19:01;6.80;99.90
22908;DHT22;11620;50.050;8.690;2024-01-30T16:21:27;6.80;99.90
22908;DHT22;11620;50.050;8.690;2024-01-30T16:23:53;6.80;99.90
22908;DHT22;11620;50.050;8.690;2024-01-30T16:26:19;6.80;99.90
22908;DHT22;11620;50.050;8.690;2024-01-30T16:28:46;6.90;99.90
22908;DHT22;11620;50.050;8.690;2024-01-30T16:31:31;6.80;99.90
22908;DHT22;11620;50.050;8.690;2024-01-30T16:34:18;6.80;99.90
22908;DHT22;11620;50.050;8.690;2024-01-30T16:37:05;6.80;99.90
22908;DHT22;11620;50.050;8.690;2024-01-30T16:39:52;6.70;99.90
22908;DHT22;11620;50.050;8.690;2024-01-30T16:42:38;6.60;99.90
22908;DHT22;11620;50.050;8.690;2024-01-30T16:45:24;6.50;99.90
22908;DHT22;11620;50.050;8.690;2024-01-30T16:48:11;6.40;99.90
22908;DHT22;11620;50.050;8.690;2024-01-30T16:51:02;6.50;99.90
22908;DHT22;11620;50.050;8.690;2024-01-30T16:53:48;6.50;99.90
22908;DHT22;11620;50.050;8.690;2024-01-30T16:56:35;6.50;99.90
22908;DHT22;11620;50.050;8.690;2024-01-30T16:59:21;6.50;99.90
22908;DHT22;11620;50.050;8.690;2024-01-30T17:02:07;6.50;99.90
22908;DHT22;11620;50.050;8.690;2024-01-30T17:04:54;6.50;99.90
22908;DHT22;11620;50.050;8.690;2024-01-30T17:07:40;6.50;99.90
22908;DHT22;11620;50.050;8.690;2024-01-30T17:10:27;6.50;99.90
22908;DHT22;11620;50.050;8.690;2024-01-30T17:13:13;6.60;99.90
22908;DHT22;11620;50.050;8.690;2024-01-30T17:15:59;6.50;99.90
22908;DHT22;11620;50.050;8.690;2024-01-30T17:18:46;6.50;99.90
22908;DHT22;11620;50.050;8.690;2024-01-30T17:21:32;6.50;99.90
22908;DHT22;11620;50.050;8.690;2024-01-30T17:24:20;6.50;99.90
22908;DHT22;11620;50.050;8.690;2024-01-30T17:27:06;6.40;99.90
22908;DHT22;11620;50.050;8.690;2024-01-30T17:29:52;6.40;99.90
22908;DHT22;11620;50.050;8.690;2024-01-30T17:32:39;6.40;99.90
22908;DHT22;11620;50.050;8.690;2024-01-30T17:35:25;6.40;99.90
22908;DHT22;11620;50.050;8.690;2024-01-30T17:38:11;6.40;99.90
22908;DHT22;11620;50.050;8.690;2024-01-30T17:40:58;6.40;99.90
22908;DHT22;11620;50.050;8.690;2024-01-30T17:43:44;6.40;99.90
22908;DHT22;11620;50.050;8.690;2024-01-30T17:46:30;6.30;99.90
22908;DHT22;11620;50.050;8.690;2024-01-30T17:49:17;6.30;99.90